createdAt,value
2022-12-07T00:03:08.142Z,100.00
2022-12-07T00:05:34.773Z,100.00
2022-12-07T00:11:52.921Z,100.00
2022-12-07T00:14:20.207Z,100.00
2022-12-07T00:20:34.070Z,100.00
2022-12-07T00:23:00.856Z,100.00
2022-12-07T00:25:27.418Z,100.00
2022-12-07T00:31:41.505Z,100.00
2022-12-07T00:34:12.677Z,100.00
2022-12-07T00:40:54.061Z,100.00
2022-12-07T00:43:20.628Z,100.00
2022-12-07T00:45:47.220Z,100.00
2022-12-07T00:52:00.353Z,100.00
2022-12-07T00:54:26.907Z,100.00
2022-12-07T00:56:53.423Z,100.00
2022-12-07T01:03:00.597Z,100.00
2022-12-07T01:05:27.920Z,100.00
2022-12-07T01:15:55.074Z,100.00
2022-12-07T01:18:24.121Z,100.00
2022-12-07T01:21:04.389Z,100.00
2022-12-07T01:27:18.587Z,100.00
2022-12-07T01:34:22.170Z,100.00
2022-12-07T01:36:49.235Z,100.00
2022-12-07T01:47:20.272Z,100.00
2022-12-07T01:49:49.908Z,100.00
2022-12-07T01:52:32.792Z,100.00
2022-12-07T02:05:50.198Z,100.00
2022-12-07T02:11:57.176Z,100.00
2022-12-07T02:14:23.796Z,100.00
2022-12-07T02:32:23.060Z,100.00
2022-12-07T02:35:03.884Z,100.00
2022-12-07T02:50:38.170Z,100.00
2022-12-07T06:32:04.615Z,100.00
2022-12-07T06:34:40.181Z,100.00
2022-12-07T06:48:53.922Z,100.00
2022-12-07T06:59:14.759Z,100.00
2022-12-07T07:05:31.966Z,100.00
2022-12-07T07:11:58.116Z,100.00
2022-12-07T07:14:24.787Z,100.00
2022-12-07T07:47:17.779Z,100.00
2022-12-07T07:49:48.013Z,100.00
2022-12-07T08:03:36.333Z,100.00
2022-12-07T08:06:04.811Z,100.00
2022-12-07T08:15:51.961Z,100.00
2022-12-07T08:18:18.805Z,100.00
2022-12-07T08:24:37.155Z,100.00
2022-12-07T08:27:04.350Z,100.00
2022-12-07T08:59:15.306Z,100.00
2022-12-07T09:09:19.083Z,100.00
2022-12-07T09:11:46.438Z,100.00
2022-12-07T09:14:13.981Z,100.00
2022-12-07T09:16:43.308Z,100.00
2022-12-07T09:19:10.922Z,100.00
2022-12-07T09:21:37.716Z,100.00
2022-12-07T09:24:04.663Z,100.00
2022-12-07T09:26:31.342Z,100.00
2022-12-07T09:28:57.927Z,100.00
2022-12-07T09:31:25.797Z,100.00
2022-12-07T09:34:00.945Z,100.00
2022-12-07T09:36:31.130Z,100.00
2022-12-07T09:38:57.794Z,100.00
2022-12-07T09:41:26.519Z,100.00
2022-12-07T09:43:59.105Z,100.00
2022-12-07T09:46:25.700Z,100.00
2022-12-07T09:48:56.599Z,100.00
2022-12-07T09:51:25.954Z,100.00
2022-12-07T09:53:56.608Z,100.00
2022-12-07T09:56:54.876Z,100.00
2022-12-07T09:59:23.065Z,100.00
2022-12-07T10:01:55.784Z,100.00
2022-12-07T10:07:20.691Z,100.00
2022-12-07T10:09:47.215Z,100.00
2022-12-07T10:12:15.914Z,100.00
2022-12-07T10:15:11.433Z,100.00
2022-12-07T10:17:49.616Z,100.00
2022-12-07T10:20:23.041Z,100.00
2022-12-07T10:23:24.948Z,100.00
2022-12-07T10:25:55.865Z,100.00
2022-12-07T10:28:23.277Z,100.00
2022-12-07T10:31:00.736Z,100.00
2022-12-07T10:33:34.012Z,100.00
2022-12-07T10:36:17.695Z,100.00
2022-12-07T10:38:55.622Z,100.00
2022-12-07T10:41:24.806Z,100.00
2022-12-07T10:43:57.195Z,100.00
2022-12-07T10:46:54.985Z,100.00
2022-12-07T10:49:30.573Z,100.00
2022-12-07T10:52:07.433Z,100.00
2022-12-07T10:59:11.452Z,100.00
2022-12-07T11:05:49.732Z,100.00
2022-12-07T11:09:07.806Z,100.00
2022-12-07T11:12:00.823Z,100.00
2022-12-07T11:19:00.013Z,92.97
2022-12-07T11:21:50.259Z,88.71
2022-12-07T11:25:00.366Z,82.95
2022-12-07T11:27:59.988Z,81.58
2022-12-07T11:30:58.782Z,83.25
2022-12-07T11:33:47.057Z,86.88
2022-12-07T11:36:52.165Z,86.38
2022-12-07T11:39:45.315Z,84.74
2022-12-07T11:42:17.754Z,86.85
2022-12-07T11:48:19.917Z,89.60
2022-12-07T11:51:14.628Z,91.62
2022-12-07T11:54:18.243Z,91.34
2022-12-07T11:59:45.383Z,88.17
2022-12-07T12:06:42.852Z,85.20
2022-12-07T12:10:21.705Z,85.94
2022-12-07T12:16:59.361Z,83.89
2022-12-07T12:19:59.386Z,83.96
2022-12-07T12:22:35.886Z,83.93
2022-12-07T12:25:19.716Z,85.15
2022-12-07T12:27:51.697Z,85.48
2022-12-07T12:31:05.243Z,85.48
2022-12-07T12:33:38.236Z,83.78
2022-12-07T12:36:17.464Z,84.40
2022-12-07T12:39:09.726Z,82.02
2022-12-07T12:41:40.274Z,82.21
2022-12-07T12:44:16.309Z,80.80
2022-12-07T12:47:01.573Z,80.23
2022-12-07T12:49:47.113Z,80.18
2022-12-07T12:52:53.120Z,82.28
2022-12-07T12:55:23.030Z,81.92
2022-12-07T12:58:21.469Z,84.15
2022-12-07T13:00:50.206Z,85.03
2022-12-07T13:03:32.697Z,100.00
2022-12-07T13:06:27.410Z,85.91
2022-12-07T13:09:03.178Z,87.57
2022-12-07T13:11:34.952Z,86.91
2022-12-07T13:14:49.101Z,85.23
2022-12-07T13:20:49.357Z,91.35
2022-12-07T13:26:39.477Z,94.78
2022-12-07T13:29:24.550Z,98.32
2022-12-07T13:31:57.328Z,98.08
2022-12-07T13:34:30.238Z,99.99
2022-12-07T13:36:57.367Z,100.00
2022-12-07T13:39:26.738Z,100.00
2022-12-07T13:42:01.066Z,99.06
2022-12-07T13:44:29.388Z,97.65
2022-12-07T13:47:10.922Z,98.45
2022-12-07T13:49:55.624Z,100.00
2022-12-07T13:52:29.431Z,98.27
2022-12-07T13:55:14.545Z,97.08
2022-12-07T13:57:45.786Z,99.95
2022-12-07T14:00:25.171Z,98.73
2022-12-07T14:03:00.708Z,99.53
2022-12-07T14:05:29.921Z,100.00
2022-12-07T14:07:59.809Z,100.00
2022-12-07T14:10:39.856Z,100.00
2022-12-07T14:13:31.145Z,100.00
2022-12-07T14:15:59.294Z,100.00
2022-12-07T14:18:30.938Z,100.00
2022-12-07T14:21:06.875Z,100.00
2022-12-07T14:23:33.639Z,100.00
2022-12-07T14:26:11.949Z,100.00
2022-12-07T14:28:41.406Z,100.00
2022-12-07T14:31:27.501Z,100.00
2022-12-07T14:34:00.361Z,100.00
2022-12-07T14:36:27.082Z,100.00
2022-12-07T14:38:57.100Z,100.00
2022-12-07T14:41:41.957Z,100.00
2022-12-07T14:44:24.049Z,100.00
2022-12-07T14:49:38.799Z,100.00
2022-12-07T14:54:56.885Z,100.00
2022-12-07T14:57:24.266Z,100.00
2022-12-07T14:59:53.417Z,100.00
2022-12-07T15:02:19.903Z,100.00
2022-12-07T15:04:46.516Z,100.00
2022-12-07T15:07:22.603Z,100.00
2022-12-07T15:09:49.855Z,100.00
2022-12-07T15:12:16.813Z,100.00
2022-12-07T15:14:43.599Z,100.00
2022-12-07T15:17:24.780Z,100.00
2022-12-07T15:19:59.673Z,100.00
2022-12-07T15:22:26.446Z,100.00
2022-12-07T15:25:05.828Z,100.00
2022-12-07T15:27:32.703Z,100.00
2022-12-07T15:33:44.550Z,100.00
2022-12-07T15:36:28.784Z,100.00
2022-12-07T15:39:13.518Z,100.00
2022-12-07T15:41:41.235Z,100.00
2022-12-07T15:44:33.952Z,100.00
2022-12-07T15:47:01.081Z,100.00
2022-12-07T15:49:28.522Z,100.00
2022-12-07T15:51:55.282Z,100.00
2022-12-07T15:54:25.654Z,100.00
2022-12-07T15:56:52.501Z,100.00
2022-12-07T15:59:19.186Z,100.00
2022-12-07T16:01:45.857Z,100.00
2022-12-07T16:04:12.535Z,100.00
2022-12-07T16:06:39.772Z,100.00
2022-12-07T16:09:06.987Z,100.00
2022-12-07T16:11:33.969Z,100.00
2022-12-07T16:14:00.452Z,100.00
2022-12-07T16:16:29.787Z,100.00
2022-12-07T16:18:56.403Z,100.00
2022-12-07T16:21:25.298Z,100.00
2022-12-07T16:23:52.415Z,100.00
2022-12-07T16:26:21.270Z,100.00
2022-12-07T16:28:54.737Z,100.00
2022-12-07T16:31:24.007Z,100.00
2022-12-07T16:33:53.519Z,100.00
2022-12-07T16:36:40.372Z,100.00
2022-12-07T16:39:10.342Z,100.00
2022-12-07T16:41:37.323Z,100.00
2022-12-07T16:44:06.608Z,100.00
2022-12-07T16:46:37.391Z,100.00
2022-12-07T16:49:04.327Z,100.00
2022-12-07T16:51:31.573Z,100.00
2022-12-07T16:54:02.180Z,100.00
2022-12-07T16:56:30.082Z,100.00
2022-12-07T16:58:59.555Z,100.00
2022-12-07T17:01:28.998Z,100.00
2022-12-07T17:03:57.123Z,100.00
2022-12-07T17:06:25.818Z,100.00
2022-12-07T17:08:52.953Z,100.00
2022-12-07T17:11:27.777Z,100.00
2022-12-07T17:14:13.508Z,100.00
2022-12-07T17:16:40.445Z,100.00
2022-12-07T17:19:09.286Z,100.00
2022-12-07T17:21:36.458Z,100.00
2022-12-07T17:24:05.641Z,100.00
2022-12-07T17:26:35.795Z,100.00
2022-12-07T17:29:04.621Z,100.00
2022-12-07T17:31:31.822Z,100.00
2022-12-07T17:33:58.475Z,100.00
2022-12-07T17:36:28.382Z,100.00
2022-12-07T17:38:55.054Z,100.00
2022-12-07T17:41:47.490Z,100.00
2022-12-07T17:44:21.198Z,100.00
2022-12-07T17:46:50.800Z,100.00
2022-12-07T17:49:17.509Z,100.00
2022-12-07T17:52:02.663Z,100.00
2022-12-07T17:54:29.627Z,100.00
2022-12-07T17:56:56.336Z,100.00
2022-12-07T17:59:23.108Z,100.00
2022-12-07T18:01:50.045Z,100.00
2022-12-07T18:04:16.772Z,100.00
2022-12-07T18:06:48.853Z,100.00
2022-12-07T18:09:18.635Z,100.00
2022-12-07T18:11:45.226Z,100.00
2022-12-07T18:14:11.778Z,100.00
2022-12-07T18:16:38.401Z,100.00
2022-12-07T18:19:06.874Z,100.00
2022-12-07T18:21:33.711Z,100.00
2022-12-07T18:24:02.644Z,100.00
2022-12-07T18:26:31.200Z,100.00
2022-12-07T18:29:00.480Z,100.00
2022-12-07T18:31:27.344Z,100.00
2022-12-07T18:33:56.307Z,100.00
2022-12-07T18:36:23.867Z,100.00
2022-12-07T18:38:51.618Z,100.00
2022-12-07T18:41:18.937Z,100.00
2022-12-07T18:43:45.613Z,100.00
2022-12-07T18:46:14.501Z,100.00
2022-12-07T18:48:41.117Z,100.00
2022-12-07T18:51:09.879Z,100.00
2022-12-07T18:53:36.986Z,100.00
2022-12-07T18:56:03.444Z,100.00
2022-12-07T18:58:30.034Z,100.00
2022-12-07T19:00:57.195Z,100.00
2022-12-07T19:03:29.934Z,100.00
2022-12-07T19:05:59.424Z,100.00
2022-12-07T19:08:26.002Z,100.00
2022-12-07T19:10:52.797Z,100.00
2022-12-07T19:13:19.350Z,100.00
2022-12-07T19:15:45.974Z,100.00
2022-12-07T19:18:12.534Z,100.00
2022-12-07T19:20:39.479Z,100.00
2022-12-07T19:23:06.022Z,100.00
2022-12-07T19:25:32.564Z,100.00
2022-12-07T19:27:59.116Z,100.00
2022-12-07T19:30:25.636Z,100.00
2022-12-07T19:32:52.145Z,100.00
2022-12-07T19:35:18.709Z,100.00
2022-12-07T19:37:45.216Z,100.00
2022-12-07T19:40:12.205Z,100.00
2022-12-07T19:42:38.839Z,100.00
2022-12-07T19:45:06.097Z,100.00
2022-12-07T19:47:32.806Z,100.00
2022-12-07T19:50:02.139Z,100.00
2022-12-07T19:52:33.500Z,100.00
2022-12-07T19:55:03.080Z,100.00
2022-12-07T19:57:29.805Z,100.00
2022-12-07T19:59:56.329Z,100.00
2022-12-07T20:02:23.004Z,100.00
2022-12-07T20:04:49.484Z,100.00
2022-12-07T20:07:16.174Z,100.00
2022-12-07T20:09:42.846Z,100.00
2022-12-07T20:12:29.486Z,100.00
2022-12-07T20:14:56.049Z,100.00
2022-12-07T20:17:22.776Z,100.00
2022-12-07T20:19:49.426Z,100.00
2022-12-07T20:22:15.967Z,100.00
2022-12-07T20:24:42.570Z,100.00
2022-12-07T20:27:09.055Z,100.00
2022-12-07T20:29:35.633Z,100.00
2022-12-07T20:32:02.465Z,100.00
2022-12-07T20:34:29.159Z,100.00
2022-12-07T20:36:57.340Z,100.00
2022-12-07T20:39:24.204Z,100.00
2022-12-07T20:42:09.746Z,100.00
2022-12-07T20:44:36.528Z,100.00
2022-12-07T20:47:05.197Z,100.00
2022-12-07T20:49:32.020Z,100.00
2022-12-07T20:51:58.529Z,100.00
2022-12-07T20:54:25.093Z,100.00
2022-12-07T20:56:51.636Z,100.00
2022-12-07T20:59:18.207Z,100.00
2022-12-07T21:01:45.615Z,100.00
2022-12-07T21:04:14.351Z,100.00
2022-12-07T21:06:41.454Z,100.00
2022-12-07T21:09:09.691Z,100.00
2022-12-07T21:11:37.547Z,100.00
2022-12-07T21:14:04.242Z,100.00
2022-12-07T21:16:32.696Z,100.00
2022-12-07T21:19:04.137Z,100.00
2022-12-07T21:21:32.131Z,100.00
2022-12-07T21:24:02.448Z,100.00
2022-12-07T21:26:31.181Z,100.00
2022-12-07T21:28:57.760Z,100.00
2022-12-07T21:31:24.473Z,100.00
2022-12-07T21:33:51.330Z,100.00
2022-12-07T21:36:20.255Z,100.00
2022-12-07T21:38:47.984Z,100.00
2022-12-07T21:41:17.080Z,100.00
2022-12-07T21:43:44.346Z,100.00
2022-12-07T21:46:12.333Z,100.00
2022-12-07T21:48:39.116Z,100.00
2022-12-07T21:51:13.689Z,100.00
2022-12-07T21:53:42.369Z,100.00
2022-12-07T21:56:33.610Z,100.00
2022-12-07T21:59:06.810Z,100.00
2022-12-07T22:01:37.881Z,100.00
2022-12-07T22:04:06.469Z,100.00
2022-12-07T22:06:34.003Z,100.00
2022-12-07T22:09:00.569Z,100.00
2022-12-07T22:11:27.071Z,100.00
2022-12-07T22:14:12.148Z,100.00
2022-12-07T22:16:39.325Z,100.00
2022-12-07T22:19:07.423Z,100.00
2022-12-07T22:21:34.434Z,100.00
2022-12-07T22:24:01.731Z,100.00
2022-12-07T22:26:28.248Z,100.00
2022-12-07T22:28:54.949Z,100.00
2022-12-07T22:31:22.280Z,100.00
2022-12-07T22:33:49.325Z,100.00
2022-12-07T22:36:16.426Z,100.00
2022-12-07T22:38:43.238Z,100.00
2022-12-07T22:41:16.869Z,100.00
2022-12-07T22:43:43.591Z,100.00
2022-12-07T22:46:10.315Z,100.00
2022-12-07T22:48:37.304Z,100.00
2022-12-07T22:51:04.106Z,100.00
2022-12-07T22:53:30.929Z,100.00
2022-12-07T22:55:57.483Z,100.00
2022-12-07T22:58:24.001Z,100.00
2022-12-07T23:00:50.502Z,100.00
2022-12-07T23:03:17.080Z,100.00
2022-12-07T23:05:45.172Z,100.00
2022-12-07T23:08:12.167Z,100.00
2022-12-07T23:10:47.442Z,100.00
2022-12-07T23:13:36.737Z,100.00
2022-12-07T23:16:09.453Z,100.00
2022-12-07T23:18:36.290Z,100.00
2022-12-07T23:21:03.084Z,100.00
2022-12-07T23:23:29.625Z,100.00
2022-12-07T23:26:02.387Z,100.00
2022-12-07T23:28:28.946Z,100.00
2022-12-07T23:31:21.594Z,100.00
2022-12-07T23:33:48.239Z,100.00
2022-12-07T23:36:26.777Z,100.00
2022-12-07T23:38:55.535Z,100.00
2022-12-07T23:41:27.527Z,100.00
2022-12-07T23:43:55.838Z,100.00
2022-12-07T23:46:25.035Z,100.00
2022-12-07T23:48:53.378Z,100.00
2022-12-07T23:51:20.373Z,100.00
2022-12-07T23:53:49.163Z,100.00
2022-12-07T23:56:18.211Z,100.00
2022-12-07T23:58:44.828Z,100.00
